Time;durP1;ratioP1;P1;durP2;ratioP2;P2;SDS_P1;SDS_P2;PMS_P1;PMS_P2;Temp;Humidity;BMP_temperature;BMP_pressure;BME280_temperature;BME280_humidity;BME280_pressure;Samples;Min_cycle;Max_cycle;Signal;HPM_P1;HPM_P2
2022/06/03 00:02:51;;;;;;;11.45;5.82;;;;;;;16.80;100.00;96639.06;5054877;28;20207;-53
2022/06/03 00:05:55;;;;;;;8.35;5.50;;;;;;;16.72;100.00;96631.16;5042033;28;20306;-53
2022/06/03 00:08:57;;;;;;;6.45;5.72;;;;;;;16.61;100.00;96640.41;5054176;28;20210;-55
2022/06/03 00:11:45;;;;;;;5.93;5.32;;;;;;;16.68;100.00;96640.53;5042060;28;20293;-54
2022/06/03 00:14:34;;;;;;;6.45;5.85;;;;;;;16.60;100.00;96653.94;5053772;28;20267;-55
2022/06/03 00:17:06;;;;;;;5.72;5.10;;;;;;;16.61;100.00;96648.44;5054770;28;20271;-54
2022/06/03 00:19:53;;;;;;;7.22;5.97;;;;;;;16.51;100.00;96650.47;5054935;28;20290;-54
2022/06/03 00:22:40;;;;;;;6.28;5.72;;;;;;;16.57;99.80;96655.13;5053802;28;20242;-54
2022/06/03 00:25:26;;;;;;;6.28;5.70;;;;;;;16.49;100.00;96654.31;5054763;28;20295;-54
2022/06/03 00:28:05;;;;;;;5.63;5.15;;;;;;;16.37;100.00;96648.56;5042378;28;20298;-55
2022/06/03 00:31:07;;;;;;;5.95;5.45;;;;;;;16.27;100.00;96648.00;5054782;28;20206;-54
2022/06/03 00:33:46;;;;;;;6.70;6.10;;;;;;;16.20;100.00;96657.72;5053736;28;20290;-54
2022/06/03 00:36:33;;;;;;;5.65;5.20;;;;;;;16.19;100.00;96662.22;5054560;28;20199;-55
2022/06/03 00:39:09;;;;;;;6.05;5.40;;;;;;;16.13;100.00;96646.09;5043949;28;20227;-53
2022/06/03 00:41:43;;;;;;;5.38;4.90;;;;;;;16.14;100.00;96656.59;5048437;28;20264;-54
2022/06/03 00:44:37;;;;;;;6.15;5.55;;;;;;;16.18;100.00;96654.41;5045717;28;20600;-54
2022/06/03 00:47:20;;;;;;;5.50;5.10;;;;;;;16.12;100.00;96661.25;5057836;28;20279;-54
2022/06/03 00:50:21;;;;;;;5.40;4.90;;;;;;;16.03;100.00;96656.16;5057857;28;20203;-53
2022/06/03 00:53:11;;;;;;;5.47;5.00;;;;;;;15.97;100.00;96662.22;5019284;28;20594;-54
2022/06/03 00:55:54;;;;;;;5.57;5.18;;;;;;;15.92;100.00;96660.91;5058088;28;20282;-54
2022/06/03 00:58:40;;;;;;;5.20;4.80;;;;;;;15.88;100.00;96654.25;5058019;28;20207;-54
2022/06/03 01:01:11;;;;;;;5.83;5.33;;;;;;;15.86;100.00;96650.94;5056727;28;20263;-55
2022/06/03 01:03:54;;;;;;;5.35;4.55;;;;;;;15.85;100.00;96651.94;5058143;28;20290;-55
2022/06/03 01:06:29;;;;;;;5.00;4.63;;;;;;;15.82;100.00;96646.13;5057703;28;20310;-54
2022/06/03 01:09:20;;;;;;;5.15;4.75;;;;;;;15.83;100.00;96634.47;5056830;28;20294;-53
2022/06/03 01:12:05;;;;;;;5.47;4.97;;;;;;;15.88;100.00;96637.41;5045760;28;20203;-54
2022/06/03 01:14:41;;;;;;;5.13;4.82;;;;;;;15.83;100.00;96637.97;5066599;28;20691;-55
2022/06/03 01:17:13;;;;;;;5.23;4.83;;;;;;;15.81;100.00;96631.13;5065911;28;20207;-54
2022/06/03 01:20:12;;;;;;;5.38;4.97;;;;;;;15.78;100.00;96628.81;5081069;28;20202;-54
2022/06/03 01:23:29;;;;;;;5.45;4.95;;;;;;;15.84;100.00;96634.25;5073488;28;20214;-54
2022/06/03 01:26:53;;;;;;;5.72;4.95;;;;;;;15.84;100.00;96642.25;5064821;28;20270;-55
2022/06/03 01:29:39;;;;;;;5.45;5.05;;;;;;;15.82;100.00;96649.63;5056234;28;20703;-54
2022/06/03 01:32:28;;;;;;;5.00;4.67;;;;;;;15.79;100.00;96652.66;5058780;28;20203;-53
2022/06/03 01:35:23;;;;;;;5.20;4.75;;;;;;;15.76;100.00;96650.34;5069844;28;20703;-55
2022/06/03 01:37:55;;;;;;;5.43;5.03;;;;;;;15.77;100.00;96656.47;5075366;28;20326;-54
2022/06/03 01:40:33;;;;;;;5.57;5.07;;;;;;;15.82;100.00;96649.63;5057388;28;20345;-55
2022/06/03 01:43:44;;;;;;;5.25;4.85;;;;;;;15.81;100.00;96645.28;5049951;28;20274;-54
2022/06/03 01:46:26;;;;;;;5.70;5.20;;;;;;;15.76;100.00;96638.84;5048707;28;20234;-54
2022/06/03 01:49:35;;;;;;;5.25;4.75;;;;;;;15.68;100.00;96639.69;5057338;28;20242;-54
2022/06/03 01:52:33;;;;;;;5.73;5.10;;;;;;;15.62;100.00;96640.41;5057820;28;20282;-53
2022/06/03 01:55:27;;;;;;;5.57;5.10;;;;;;;15.62;100.00;96643.06;5058774;28;20207;-54
2022/06/03 01:58:43;;;;;;;5.40;4.93;;;;;;;15.65;100.00;96636.56;5067330;28;20242;-54
2022/06/03 02:02:03;;;;;;;5.67;5.17;;;;;;;15.56;100.00;96630.41;5060410;28;20301;-55
2022/06/03 02:04:47;;;;;;;5.53;5.13;;;;;;;15.61;100.00;96636.06;4998339;28;20250;-53
2022/06/03 02:07:41;;;;;;;5.57;5.10;;;;;;;15.60;100.00;96634.41;5079190;28;20211;-53
2022/06/03 02:10:40;;;;;;;6.03;5.03;;;;;;;15.53;100.00;96636.09;5071683;28;20203;-54
2022/06/03 02:13:44;;;;;;;5.43;4.93;;;;;;;15.52;100.00;96641.63;5085104;28;20191;-55
2022/06/03 02:16:49;;;;;;;5.43;5.03;;;;;;;15.52;100.00;96646.97;5070608;28;20199;-54
2022/06/03 02:19:37;;;;;;;5.30;4.90;;;;;;;15.55;100.00;96641.28;5073108;28;20210;-53
2022/06/03 02:22:21;;;;;;;5.40;4.90;;;;;;;15.47;100.00;96655.44;5055660;28;20203;-54
2022/06/03 02:25:07;;;;;;;6.37;5.10;;;;;;;15.54;100.00;96653.78;5057220;28;20219;-53
2022/06/03 02:28:03;;;;;;;5.60;5.20;;;;;;;15.53;100.00;96660.09;5067626;28;20243;-54
2022/06/03 02:31:25;;;;;;;5.33;5.03;;;;;;;15.55;100.00;96668.75;5046250;28;20191;-53
2022/06/03 02:34:26;;;;;;;5.17;4.67;;;;;;;15.54;100.00;96661.75;5057564;28;20220;-55
2022/06/03 02:37:44;;;;;;;5.30;5.00;;;;;;;15.56;100.00;96674.91;5076082;28;20197;-52
2022/06/03 02:40:34;;;;;;;5.00;4.60;;;;;;;15.61;100.00;96673.41;4990753;28;20316;-54
2022/06/03 02:43:44;;;;;;;5.83;5.43;;;;;;;15.61;100.00;96662.72;4994426;28;20295;-54
2022/06/03 02:46:34;;;;;;;5.83;5.43;;;;;;;15.65;100.00;96656.06;5019052;28;20235;-53
2022/06/03 02:49:39;;;;;;;5.90;5.40;;;;;;;15.65;100.00;96640.06;5050558;28;20595;-54
2022/06/03 02:52:36;;;;;;;5.60;5.20;;;;;;;15.64;100.00;96638.38;5056062;28;20258;-53
2022/06/03 02:55:35;;;;;;;6.00;5.40;;;;;;;15.63;100.00;96636.72;5055759;28;20700;-54
2022/06/03 02:58:34;;;;;;;5.60;5.20;;;;;;;15.67;100.00;96642.53;5017514;28;20208;-54
2022/06/03 03:01:12;;;;;;;5.80;5.30;;;;;;;15.69;100.00;96641.38;5071196;28;20202;-55
2022/06/03 03:03:49;;;;;;;7.23;6.57;;;;;;;15.70;100.00;96635.00;5054732;28;20298;-53
2022/06/03 03:06:51;;;;;;;6.25;5.78;;;;;;;15.69;100.00;96633.38;5055527;28;20215;-54
2022/06/03 03:09:46;;;;;;;6.20;5.70;;;;;;;15.71;100.00;96630.53;5055601;28;20290;-53
2022/06/03 03:12:57;;;;;;;5.60;5.20;;;;;;;15.73;100.00;96624.00;5054835;28;20422;-54
2022/06/03 03:16:00;;;;;;;6.03;5.63;;;;;;;15.74;100.00;96617.66;5027005;28;20291;-54
2022/06/03 03:19:08;;;;;;;6.03;5.53;;;;;;;15.74;100.00;96622.16;5055308;28;20608;-54
2022/06/03 03:22:09;;;;;;;5.30;4.80;;;;;;;15.83;100.00;96624.63;5046605;28;20286;-54
2022/06/03 03:25:14;;;;;;;5.73;5.17;;;;;;;15.87;100.00;96631.25;5042409;28;20601;-54
2022/06/03 03:27:56;;;;;;;5.43;5.03;;;;;;;15.84;100.00;96626.28;5012673;28;20291;-54
2022/06/03 03:30:29;;;;;;;10.93;9.93;;;;;;;15.81;100.00;96626.63;5012913;28;20270;-54
2022/06/03 03:33:12;;;;;;;6.70;6.10;;;;;;;15.78;100.00;96618.97;5025839;28;20211;-54
2022/06/03 03:35:50;;;;;;;5.60;5.20;;;;;;;15.77;100.00;96617.31;5067192;28;20210;-54
2022/06/03 03:38:47;;;;;;;5.97;5.47;;;;;;;15.84;100.00;96626.28;5069907;28;20231;-54
2022/06/03 03:41:29;;;;;;;10.00;9.00;;;;;;;15.85;100.00;96617.28;5075421;28;20194;-54
2022/06/03 03:44:32;;;;;;;7.87;6.80;;;;;;;15.86;100.00;96618.94;5055188;28;20290;-53
2022/06/03 03:47:39;;;;;;;6.30;5.77;;;;;;;15.88;100.00;96624.06;5023565;28;20647;-53
2022/06/03 03:50:33;;;;;;;6.50;5.90;;;;;;;15.91;100.00;96623.72;5064396;28;20205;-53
2022/06/03 03:53:37;;;;;;;6.97;6.03;;;;;;;15.93;100.00;96622.56;5054668;28;20210;-55
2022/06/03 03:56:36;;;;;;;6.20;5.70;;;;;;;15.97;100.00;96628.38;5046671;28;20206;-53
2022/06/03 03:59:28;;;;;;;5.70;5.30;;;;;;;16.01;100.00;96635.00;4998601;28;20228;-53
2022/06/03 04:02:23;;;;;;;7.20;6.00;;;;;;;16.02;100.00;96628.66;5054282;28;20315;-53
2022/06/03 04:05:19;;;;;;;5.72;5.32;;;;;;;16.10;100.00;96625.09;5032231;28;20266;-55
2022/06/03 04:08:10;;;;;;;5.65;5.15;;;;;;;16.14;100.00;96631.75;5069050;28;20206;-54
2022/06/03 04:11:02;;;;;;;6.47;5.33;;;;;;;16.14;100.00;96626.41;5061914;28;20196;-54
2022/06/03 04:13:57;;;;;;;5.63;5.23;;;;;;;16.16;100.00;96625.22;5042754;28;20207;-54
2022/06/03 04:16:56;;;;;;;5.80;5.27;;;;;;;16.12;100.00;96633.78;5055757;28;20282;-54
2022/06/03 04:19:36;;;;;;;5.17;4.77;;;;;;;16.11;100.00;96634.78;5005585;28;20215;-53
2022/06/03 04:22:46;;;;;;;5.37;4.97;;;;;;;16.19;100.00;96634.72;5054261;28;20286;-54
2022/06/03 04:25:40;;;;;;;5.40;4.93;;;;;;;16.23;100.00;96636.00;5058737;28;20213;-55
2022/06/03 04:28:27;;;;;;;5.60;5.10;;;;;;;16.25;100.00;96628.66;5058464;28;20226;-54
2022/06/03 04:31:30;;;;;;;5.72;5.22;;;;;;;16.24;100.00;96625.16;5059100;28;20350;-53
2022/06/03 04:34:33;;;;;;;5.68;5.18;;;;;;;16.23;100.00;96625.34;5061830;28;20281;-54
2022/06/03 04:37:35;;;;;;;6.00;5.53;;;;;;;16.20;100.00;96620.34;5078652;28;20206;-54
2022/06/03 04:40:48;;;;;;;6.30;5.75;;;;;;;16.19;100.00;96624.06;5054130;28;20273;-54
2022/06/03 04:43:58;;;;;;;6.50;5.90;;;;;;;16.21;100.00;96628.19;5058208;28;20686;-54
2022/06/03 04:47:01;;;;;;;5.97;5.50;;;;;;;16.23;100.00;96636.00;5057428;28;20265;-54
2022/06/03 04:50:09;;;;;;;5.97;5.47;;;;;;;16.27;100.00;96630.16;5049529;28;20234;-55
2022/06/03 04:53:06;;;;;;;6.10;5.70;;;;;;;16.39;100.00;96627.88;5048326;28;20238;-53
2022/06/03 04:56:21;;;;;;;5.63;5.22;;;;;;;16.68;100.00;96625.34;5057915;28;20217;-55
2022/06/03 04:59:38;;;;;;;6.60;6.00;;;;;;;16.80;100.00;96623.88;5037262;28;20639;-53
2022/06/03 05:02:54;;;;;;;6.07;5.68;;;;;;;16.96;100.00;96619.38;5013292;28;20230;-53
2022/06/03 05:06:00;;;;;;;6.40;5.80;;;;;;;17.14;100.00;96622.53;5045542;28;20302;-54
2022/06/03 05:08:59;;;;;;;6.95;6.45;;;;;;;17.29;100.00;96620.66;5049233;28;20286;-54
2022/06/03 05:12:06;;;;;;;6.88;6.32;;;;;;;17.49;100.00;96613.75;5046813;28;20289;-54
2022/06/03 05:15:08;;;;;;;7.40;6.40;;;;;;;17.71;100.00;96615.47;5056797;28;20207;-54
2022/06/03 05:18:14;;;;;;;6.50;6.00;;;;;;;17.90;99.58;96617.56;5052607;28;20281;-53
2022/06/03 05:21:02;;;;;;;7.38;6.78;;;;;;;18.03;97.58;96610.69;5057298;28;20286;-53
2022/06/03 05:24:12;;;;;;;7.53;6.93;;;;;;;18.19;94.97;96611.28;5057430;28;20651;-53
2022/06/03 05:27:19;;;;;;;7.10;6.50;;;;;;;18.40;95.00;96607.75;5045338;28;20207;-52
2022/06/03 05:30:14;;;;;;;7.13;6.63;;;;;;;18.57;92.20;96609.16;5046616;28;20671;-52
2022/06/03 05:33:03;;;;;;;7.10;6.38;;;;;;;18.75;91.73;96611.38;5046466;28;20238;-54
2022/06/03 05:36:16;;;;;;;8.23;7.35;;;;;;;18.93;89.40;96603.66;5056521;28;20238;-53
2022/06/03 05:39:16;;;;;;;6.90;6.40;;;;;;;19.18;88.63;96596.81;5056693;28;20327;-52
2022/06/03 05:44:53;;;;;;;7.82;7.18;;;;;;;19.68;85.58;96589.47;5056662;28;20209;-54
2022/06/03 05:47:26;;;;;;;6.93;6.43;;;;;;;19.83;84.52;96596.34;5053836;28;20619;-54
2022/06/03 05:49:59;;;;;;;7.32;6.70;;;;;;;19.81;85.14;96598.38;5056457;28;20230;-53
2022/06/03 05:52:33;;;;;;;7.85;7.00;;;;;;;19.84;84.72;96597.13;5048035;28;20284;-54
2022/06/03 05:55:19;;;;;;;7.28;6.68;;;;;;;19.85;84.33;96599.63;5055472;28;20240;-53
2022/06/03 05:57:57;;;;;;;7.53;6.85;;;;;;;19.76;84.92;96598.16;5078624;28;20195;-54
2022/06/03 06:00:49;;;;;;;7.57;6.50;;;;;;;19.64;84.85;96591.72;5065830;28;20180;-53
2022/06/03 06:03:27;;;;;;;7.25;6.65;;;;;;;19.60;85.56;96593.13;5053453;28;20218;-54
2022/06/03 06:06:08;;;;;;;8.38;6.65;;;;;;;19.55;86.54;96590.25;5056779;28;20683;-53
2022/06/03 06:08:42;;;;;;;7.22;6.68;;;;;;;19.45;85.79;96587.09;5053997;28;20285;-54
2022/06/03 06:11:18;;;;;;;8.77;6.60;;;;;;;19.60;84.64;96590.47;5059767;28;20198;-54
2022/06/03 06:14:16;;;;;;;7.50;6.90;;;;;;;19.80;86.28;96590.53;5045897;28;20199;-54
2022/06/03 06:16:46;;;;;;;10.07;7.22;;;;;;;19.75;85.75;96591.13;5045105;28;20580;-53
2022/06/03 06:19:20;;;;;;;8.02;7.18;;;;;;;20.05;84.09;96605.03;5053341;28;20203;-54
2022/06/03 06:21:58;;;;;;;10.90;6.72;;;;;;;20.27;82.89;96597.66;5047057;28;20195;-53
2022/06/03 06:24:44;;;;;;;13.48;7.15;;;;;;;20.54;82.96;96599.38;5050763;28;20292;-52
2022/06/03 06:28:01;;;;;;;7.85;7.15;;;;;;;20.89;81.53;96601.84;5049110;28;20309;-53
2022/06/03 06:31:00;;;;;;;7.22;6.57;;;;;;;21.24;79.25;96596.03;5002845;28;20205;-54
2022/06/03 06:34:10;;;;;;;8.18;6.75;;;;;;;21.71;76.10;96585.94;4996022;28;20289;-53
2022/06/03 06:37:24;;;;;;;7.70;6.85;;;;;;;21.81;74.57;96586.31;5046165;28;20290;-52
2022/06/03 06:40:06;;;;;;;8.20;7.15;;;;;;;22.25;73.16;96580.88;4977091;28;20266;-54
2022/06/03 06:42:48;;;;;;;7.53;6.93;;;;;;;22.35;72.47;96574.22;5042217;28;20290;-54
2022/06/03 06:45:27;;;;;;;7.13;6.53;;;;;;;22.39;72.33;96580.81;5055428;28;20750;-52
2022/06/03 06:48:04;;;;;;;7.75;7.00;;;;;;;22.54;72.38;96582.13;5055436;28;20303;-54
2022/06/03 06:50:39;;;;;;;7.25;6.68;;;;;;;22.53;71.65;96574.28;5070349;28;20289;-52
2022/06/03 06:53:08;;;;;;;7.32;6.82;;;;;;;22.75;71.15;96573.69;5055834;28;20301;-54
2022/06/03 06:55:53;;;;;;;7.72;7.00;;;;;;;22.87;71.25;96568.41;5055749;28;20724;-53
2022/06/03 06:58:27;;;;;;;8.70;6.70;;;;;;;22.80;68.21;96575.75;5055891;28;20195;-53
2022/06/03 07:00:55;;;;;;;8.02;6.82;;;;;;;22.90;68.96;96565.25;5054437;28;20202;-55
2022/06/03 07:03:42;;;;;;;7.32;6.68;;;;;;;22.93;69.86;96567.50;5056375;28;20661;-54
2022/06/03 07:06:15;;;;;;;7.72;6.85;;;;;;;22.94;68.13;96568.34;5053644;28;20281;-55
2022/06/03 07:08:45;;;;;;;7.30;6.53;;;;;;;23.12;70.39;96562.97;5045153;28;20295;-53
2022/06/03 07:11:16;;;;;;;8.85;7.18;;;;;;;23.13;67.04;96564.63;5055085;28;20704;-53
2022/06/03 07:13:48;;;;;;;6.57;5.97;;;;;;;23.39;67.01;96555.41;5055362;28;20242;-53
2022/06/03 07:19:47;;;;;;;7.03;5.90;;;;;;;23.91;67.06;96556.69;5054540;28;20211;-55
2022/06/03 07:22:03;;;;;;;7.10;6.38;;;;;;;24.50;64.57;96551.25;5055521;28;20210;-54
2022/06/03 07:24:47;;;;;;;7.50;5.72;;;;;;;24.89;63.51;96554.38;5055075;28;20294;-55
2022/06/03 07:27:18;;;;;;;7.68;6.07;;;;;;;24.89;62.72;96560.59;5052550;28;20310;-54
2022/06/03 07:29:50;;;;;;;5.75;5.35;;;;;;;25.06;62.74;96553.41;5051067;28;20283;-53
2022/06/03 07:32:19;;;;;;;6.43;5.35;;;;;;;25.09;61.57;96544.00;5049628;28;20309;-54
2022/06/03 07:34:52;;;;;;;7.90;5.22;;;;;;;25.57;61.11;96535.59;5045470;28;20291;-55
2022/06/03 07:37:27;;;;;;;6.20;5.28;;;;;;;25.74;58.04;96537.31;5045370;28;20196;-53
2022/06/03 07:39:57;;;;;;;7.07;5.00;;;;;;;25.48;60.03;96539.69;5048348;28;20256;-54
2022/06/03 07:42:32;;;;;;;6.05;4.70;;;;;;;25.74;59.61;96542.75;5050393;28;20644;-53
2022/06/03 07:45:36;;;;;;;5.70;4.90;;;;;;;26.03;58.26;96540.88;5059773;28;20199;-53
2022/06/03 07:48:05;;;;;;;5.07;4.57;;;;;;;26.23;56.82;96525.00;5043180;28;20652;-53
2022/06/03 07:50:37;;;;;;;7.47;5.35;;;;;;;26.02;56.88;96528.38;5046199;28;20290;-55
2022/06/03 07:53:08;;;;;;;4.70;4.25;;;;;;;26.19;59.92;96517.59;5053742;28;20620;-54
2022/06/03 07:55:38;;;;;;;5.20;4.28;;;;;;;26.64;58.15;96520.25;5053793;28;20290;-54
2022/06/03 07:58:07;;;;;;;5.47;4.97;;;;;;;26.22;59.01;96515.22;5054725;28;20207;-55
2022/06/03 08:00:35;;;;;;;6.30;4.47;;;;;;;25.74;58.49;96509.41;5054912;28;20294;-54
2022/06/03 08:03:08;;;;;;;5.35;4.50;;;;;;;25.52;59.05;96500.28;5054367;28;20745;-54
2022/06/03 08:05:37;;;;;;;4.55;4.18;;;;;;;25.40;60.87;96508.41;5054580;28;20241;-55
2022/06/03 08:11:01;;;;;;;7.38;4.53;;;;;;;25.84;61.25;96495.22;5054565;28;20654;-53
2022/06/03 08:13:31;;;;;;;6.43;4.70;;;;;;;26.19;57.93;96491.31;5048185;28;20207;-53
2022/06/03 08:16:01;;;;;;;10.52;4.88;;;;;;;26.27;56.73;96486.53;5057544;28;20212;-53
2022/06/03 08:18:35;;;;;;;5.05;4.60;;;;;;;26.23;55.72;96480.78;5057859;28;20195;-55
2022/06/03 08:21:06;;;;;;;5.88;4.30;;;;;;;26.40;56.63;96483.50;5054331;28;20290;-53
2022/06/03 08:23:33;;;;;;;5.00;4.55;;;;;;;26.55;55.06;96473.72;5057647;28;20294;-54
2022/06/03 08:26:05;;;;;;;5.85;4.35;;;;;;;26.49;54.97;96474.72;5052073;28;20302;-53
2022/06/03 08:28:35;;;;;;;5.93;4.35;;;;;;;26.76;53.92;96460.47;5049848;28;20212;-53
2022/06/03 08:31:05;;;;;;;4.28;3.97;;;;;;;26.92;56.39;96456.94;5052258;28;20213;-54
2022/06/03 08:33:40;;;;;;;4.72;4.32;;;;;;;26.94;54.97;96433.06;5044096;28;20208;-55
2022/06/03 08:36:12;;;;;;;4.18;3.75;;;;;;;27.10;55.26;96438.44;5048474;28;20203;-55
2022/06/03 08:38:42;;;;;;;7.95;4.00;;;;;;;27.35;54.03;96437.16;5044959;28;20306;-54
2022/06/03 08:41:22;;;;;;;4.03;3.72;;;;;;;27.59;54.29;96441.25;5050606;28;20533;-54
2022/06/03 08:44:09;;;;;;;4.13;3.83;;;;;;;27.95;53.79;96435.09;5054637;28;20683;-55
2022/06/03 08:46:40;;;;;;;4.25;3.78;;;;;;;28.02;51.54;96424.03;5053438;28;20206;-53
2022/06/03 08:49:11;;;;;;;4.68;4.28;;;;;;;28.20;52.89;96415.50;5052949;28;20203;-55
2022/06/03 08:51:44;;;;;;;5.97;3.97;;;;;;;28.40;51.03;96414.84;5053467;28;20282;-54
2022/06/03 08:54:22;;;;;;;4.07;3.78;;;;;;;28.38;51.64;96411.56;5054181;28;20206;-55
2022/06/03 08:56:53;;;;;;;4.07;3.63;;;;;;;28.55;49.37;96402.19;5045021;28;20261;-53
2022/06/03 08:59:26;;;;;;;3.35;3.05;;;;;;;28.48;49.12;96412.47;5051727;28;20206;-54
2022/06/03 09:01:56;;;;;;;4.93;3.30;;;;;;;28.67;49.49;96415.59;5052346;28;20282;-52
2022/06/03 09:04:30;;;;;;;3.85;3.42;;;;;;;28.54;48.85;96405.97;5050182;28;20262;-54
2022/06/03 09:07:05;;;;;;;9.63;3.50;;;;;;;28.54;49.39;96405.16;5048387;28;20203;-53
2022/06/03 09:09:36;;;;;;;4.00;3.40;;;;;;;28.77;49.37;96403.97;5052570;28;20317;-54
2022/06/03 09:12:14;;;;;;;4.90;3.15;;;;;;;29.02;47.97;96402.19;5053865;28;20184;-54
2022/06/03 09:14:45;;;;;;;4.57;3.45;;;;;;;29.11;48.42;96405.25;5057046;28;20228;-53
2022/06/03 09:17:26;;;;;;;3.50;3.28;;;;;;;29.07;49.13;96393.22;5066998;28;20610;-54
2022/06/03 09:19:55;;;;;;;3.33;2.70;;;;;;;29.21;48.86;96388.94;5054087;28;20245;-54
2022/06/03 09:22:24;;;;;;;3.60;3.30;;;;;;;29.37;46.84;96392.56;5066149;28;20245;-54
2022/06/03 09:24:55;;;;;;;3.17;2.97;;;;;;;29.16;46.78;96394.34;5063228;28;20263;-55
2022/06/03 09:27:25;;;;;;;3.20;2.90;;;;;;;29.29;45.61;96393.91;5057150;28;20271;-55
2022/06/03 09:29:54;;;;;;;2.92;2.60;;;;;;;29.51;45.27;96388.25;5053307;28;20196;-55
2022/06/03 09:32:24;;;;;;;4.30;3.22;;;;;;;29.27;46.00;96387.88;5058782;28;20207;-54
2022/06/03 09:34:54;;;;;;;4.32;3.40;;;;;;;29.39;47.05;96388.50;5047969;28;20254;-54
2022/06/03 09:37:29;;;;;;;5.32;4.20;;;;;;;29.60;47.72;96370.28;5057862;28;20223;-54
2022/06/03 09:39:57;;;;;;;4.00;3.60;;;;;;;29.65;49.19;96365.66;5061907;28;20258;-54
2022/06/03 09:42:26;;;;;;;4.03;3.65;;;;;;;29.51;49.21;96361.81;5057655;28;20248;-53
2022/06/03 09:44:56;;;;;;;6.25;3.38;;;;;;;29.67;49.15;96359.94;5056597;28;20234;-54
2022/06/03 09:47:26;;;;;;;3.47;3.10;;;;;;;29.98;47.05;96366.25;5044393;28;20631;-54
2022/06/03 09:49:54;;;;;;;4.13;3.30;;;;;;;29.77;46.74;96356.41;5055227;28;20211;-54
2022/06/03 09:52:26;;;;;;;4.05;3.60;;;;;;;29.70;46.70;96358.56;5054596;28;20286;-54
2022/06/03 09:54:56;;;;;;;3.80;3.50;;;;;;;29.40;46.18;96351.16;5053753;28;20227;-53
2022/06/03 09:57:29;;;;;;;5.53;3.40;;;;;;;29.69;48.12;96346.84;5048060;28;20282;-54
2022/06/03 09:59:59;;;;;;;3.65;3.40;;;;;;;29.90;47.97;96337.63;5049652;28;20299;-54
2022/06/03 10:02:26;;;;;;;4.57;3.50;;;;;;;29.79;46.28;96341.44;5056405;28;20234;-54
2022/06/03 10:04:54;;;;;;;3.55;3.25;;;;;;;29.55;48.37;96343.81;5058120;28;20290;-53
2022/06/03 10:07:25;;;;;;;4.72;3.50;;;;;;;29.78;49.05;96347.97;5059750;28;20283;-54
2022/06/03 10:12:52;;;;;;;4.00;3.70;;;;;;;29.73;46.07;96336.22;5063282;28;20242;-54
2022/06/03 10:15:39;;;;;;;4.05;3.08;;;;;;;29.78;46.94;96339.78;5072380;28;20202;-54
2022/06/03 10:18:12;;;;;;;3.17;2.95;;;;;;;30.04;45.38;96344.16;5080206;28;20187;-55
2022/06/03 10:20:41;;;;;;;3.92;3.38;;;;;;;29.99;46.11;96335.19;5051361;28;20204;-55
2022/06/03 10:23:11;;;;;;;4.18;3.65;;;;;;;30.07;44.63;96340.09;5068586;28;20203;-53
2022/06/03 10:25:42;;;;;;;4.55;3.13;;;;;;;29.81;46.81;96354.75;5069403;28;20223;-53
2022/06/03 10:28:11;;;;;;;3.13;2.83;;;;;;;29.69;45.07;96356.94;5064617;28;20258;-54
2022/06/03 10:30:41;;;;;;;3.60;3.30;;;;;;;30.08;47.86;96366.25;5072541;28;20183;-51
2022/06/03 10:33:15;;;;;;;3.40;3.10;;;;;;;30.27;45.30;96361.88;5085883;28;20256;-54
2022/06/03 10:35:44;;;;;;;3.50;3.20;;;;;;;30.42;45.80;96367.38;5065270;28;20199;-55
2022/06/03 10:38:18;;;;;;;3.80;3.50;;;;;;;30.13;46.76;96371.72;5049497;28;20306;-54
2022/06/03 10:40:48;;;;;;;4.13;3.17;;;;;;;29.75;46.91;96370.31;5050181;28;20213;-52
2022/06/03 10:43:21;;;;;;;3.47;3.17;;;;;;;29.54;46.78;96372.19;5043905;28;20290;-53
2022/06/03 10:45:50;;;;;;;4.40;3.38;;;;;;;29.17;48.90;96388.66;5044603;28;20294;-54
2022/06/03 10:48:20;;;;;;;4.38;3.53;;;;;;;28.74;50.04;96394.41;5055302;28;20290;-52
2022/06/03 10:50:47;;;;;;;3.90;3.55;;;;;;;28.52;51.08;96401.88;5055194;28;20286;-52
2022/06/03 11:01:46;;;;;;;4.68;3.28;;;;;;;27.67;53.67;96448.94;5044527;28;20214;-52
2022/06/03 11:04:27;;;;;;;3.35;3.05;;;;;;;27.63;53.41;96447.81;5057781;28;20199;-52
2022/06/03 11:06:58;;;;;;;3.42;3.10;;;;;;;27.62;52.90;96451.63;5048929;28;20214;-52
2022/06/03 11:09:27;;;;;;;4.00;3.60;;;;;;;27.52;53.82;96457.75;5042038;28;20228;-52
2022/06/03 11:11:59;;;;;;;3.03;2.83;;;;;;;27.53;53.99;96453.94;5046201;28;20230;-51
2022/06/03 11:14:35;;;;;;;3.78;3.13;;;;;;;27.59;53.29;96452.94;5050701;28;20262;-52
2022/06/03 11:17:08;;;;;;;4.25;3.20;;;;;;;27.76;52.44;96441.16;5055653;28;20207;-51
2022/06/03 11:19:37;;;;;;;3.92;3.20;;;;;;;27.92;51.11;96445.66;5045109;28;20230;-52
2022/06/03 11:22:26;;;;;;;3.20;3.00;;;;;;;27.80;50.95;96442.28;5043140;28;20230;-52
2022/06/03 11:25:02;;;;;;;3.47;3.10;;;;;;;27.82;50.24;96434.69;5040615;28;20238;-53
2022/06/03 11:27:34;;;;;;;3.28;2.92;;;;;;;27.89;51.82;96430.69;5052382;28;20203;-54
2022/06/03 11:30:05;;;;;;;3.05;2.53;;;;;;;28.09;51.96;96435.53;5049619;28;20631;-53
2022/06/03 11:32:33;;;;;;;5.25;3.17;;;;;;;28.25;51.69;96439.19;5049013;28;20302;-52
2022/06/03 11:35:04;;;;;;;4.35;3.08;;;;;;;28.31;51.49;96449.84;5045705;28;20604;-50
2022/06/03 11:37:35;;;;;;;3.97;3.00;;;;;;;28.22;50.91;96445.16;5044855;28;20293;-51
2022/06/03 11:40:10;;;;;;;3.15;2.88;;;;;;;28.08;50.58;96445.59;5050155;28;20240;-51
2022/06/03 11:42:42;;;;;;;4.10;3.10;;;;;;;28.18;50.40;96448.41;5045454;28;20199;-52
2022/06/03 11:45:13;;;;;;;2.90;2.70;;;;;;;28.12;50.36;96463.03;5050693;28;20219;-50
2022/06/03 11:47:48;;;;;;;3.33;2.97;;;;;;;28.08;50.89;96455.66;5048822;28;20273;-51
2022/06/03 11:50:20;;;;;;;5.15;3.13;;;;;;;27.90;51.12;96454.09;5044287;28;20674;-52
2022/06/03 11:52:50;;;;;;;3.10;2.88;;;;;;;27.68;51.78;96462.28;5047530;28;20253;-51
2022/06/03 11:55:19;;;;;;;3.03;2.80;;;;;;;27.57;52.20;96473.28;5050782;28;20195;-51
2022/06/03 11:57:53;;;;;;;3.30;3.03;;;;;;;27.42;51.66;96468.44;5054720;28;20620;-52
2022/06/03 12:00:21;;;;;;;2.90;2.50;;;;;;;27.21;52.33;96467.38;5049174;28;20268;-53
2022/06/03 12:03:00;;;;;;;2.70;2.50;;;;;;;27.12;52.55;96465.34;5068746;28;20245;-52
2022/06/03 12:05:33;;;;;;;3.63;2.60;;;;;;;26.98;53.63;96466.78;5063042;28;20191;-52
2022/06/03 12:08:05;;;;;;;4.88;2.67;;;;;;;26.92;53.73;96473.22;5054730;28;20218;-52
2022/06/03 12:10:43;;;;;;;4.90;2.80;;;;;;;26.85;55.25;96473.41;5051875;28;20295;-51
2022/06/03 12:13:17;;;;;;;3.88;2.70;;;;;;;26.85;55.06;96468.00;5041611;28;20625;-52
2022/06/03 12:15:51;;;;;;;3.95;3.20;;;;;;;26.69;54.99;96479.63;5050714;28;20543;-51
2022/06/03 12:19:01;;;;;;;3.60;3.30;;;;;;;26.54;55.30;96482.09;5053859;28;20641;-53
2022/06/03 12:21:59;;;;;;;4.97;2.90;;;;;;;26.49;53.97;96496.44;5047019;28;20203;-51
2022/06/03 12:24:44;;;;;;;5.63;2.72;;;;;;;26.12;54.56;96490.59;5050251;28;20214;-53
2022/06/03 12:27:19;;;;;;;3.10;2.80;;;;;;;25.88;55.86;96493.69;5052788;28;20290;-51
2022/06/03 12:29:52;;;;;;;3.28;2.97;;;;;;;25.73;53.80;96505.88;5053789;28;20238;-51
2022/06/03 12:32:24;;;;;;;2.78;2.67;;;;;;;25.41;54.69;96503.81;5053329;28;20207;-52
2022/06/03 12:34:51;;;;;;;2.97;2.70;;;;;;;25.30;52.65;96508.19;5051055;28;20245;-52
2022/06/03 12:37:27;;;;;;;4.15;3.08;;;;;;;25.15;53.00;96522.22;5054893;28;20674;-52
2022/06/03 12:40:00;;;;;;;2.58;2.38;;;;;;;24.90;55.14;96518.97;5050849;28;20224;-50
2022/06/03 12:42:41;;;;;;;4.40;2.47;;;;;;;24.72;55.21;96528.00;5047312;28;20225;-50
2022/06/03 12:45:33;;;;;;;3.95;2.60;;;;;;;24.66;55.92;96536.19;5061989;28;20190;-51
2022/06/03 12:47:59;;;;;;;3.97;3.20;;;;;;;24.53;55.54;96544.53;5093467;28;20284;-53
2022/06/03 12:50:41;;;;;;;3.92;3.10;;;;;;;24.34;54.40;96562.72;5085664;28;20199;-52
2022/06/03 12:53:49;;;;;;;3.80;2.53;;;;;;;24.14;55.36;96581.09;5060721;28;20234;-55
2022/06/03 12:56:28;;;;;;;3.45;2.60;;;;;;;23.95;55.50;96587.59;5021554;28;20707;-51
2022/06/03 12:59:20;;;;;;;3.78;2.67;;;;;;;23.74;55.59;96595.09;5054080;28;20195;-54
2022/06/03 13:01:51;;;;;;;3.60;3.30;;;;;;;23.59;57.48;96610.88;5057821;28;20298;-54
2022/06/03 13:04:37;;;;;;;6.80;6.15;;;;;;;23.56;57.84;96619.41;5045360;28;20656;-53
2022/06/03 13:07:36;;;;;;;7.28;2.70;;;;;;;23.50;60.17;96639.19;5042743;28;20564;-52